sensor_id;sensor_type;location;lat;lon;timestamp;P1;durP1;ratioP1;P2;durP2;ratioP2
63394;SDS011;49531;-34.520;150.798;2023-07-16T00:01:57;5.15;;;1.63;;
63394;SDS011;49531;-34.520;150.798;2023-07-16T00:04:24;2.95;;;1.70;;
63394;SDS011;49531;-34.520;150.798;2023-07-16T00:06:51;3.58;;;1.55;;
63394;SDS011;49531;-34.520;150.798;2023-07-16T00:09:18;5.82;;;1.63;;
63394;SDS011;49531;-34.520;150.798;2023-07-16T00:11:45;4.95;;;1.55;;
63394;SDS011;49531;-34.520;150.798;2023-07-16T00:14:12;3.63;;;1.42;;
63394;SDS011;49531;-34.520;150.798;2023-07-16T00:16:40;3.92;;;1.58;;
63394;SDS011;49531;-34.520;150.798;2023-07-16T00:19:09;3.60;;;1.70;;
63394;SDS011;49531;-34.520;150.798;2023-07-16T00:21:40;3.63;;;1.55;;
63394;SDS011;49531;-34.520;150.798;2023-07-16T00:24:08;3.35;;;1.60;;
63394;SDS011;49531;-34.520;150.798;2023-07-16T00:26:35;3.55;;;1.50;;
63394;SDS011;49531;-34.520;150.798;2023-07-16T00:29:02;3.65;;;1.50;;
63394;SDS011;49531;-34.520;150.798;2023-07-16T00:31:29;3.70;;;1.50;;
63394;SDS011;49531;-34.520;150.798;2023-07-16T00:33:56;2.25;;;1.40;;
63394;SDS011;49531;-34.520;150.798;2023-07-16T00:36:24;4.20;;;1.45;;
63394;SDS011;49531;-34.520;150.798;2023-07-16T00:38:51;3.72;;;1.45;;
63394;SDS011;49531;-34.520;150.798;2023-07-16T00:41:19;3.33;;;1.60;;
63394;SDS011;49531;-34.520;150.798;2023-07-16T00:43:46;4.35;;;1.95;;
63394;SDS011;49531;-34.520;150.798;2023-07-16T00:46:13;3.70;;;1.65;;
63394;SDS011;49531;-34.520;150.798;2023-07-16T00:48:40;2.47;;;1.50;;
63394;SDS011;49531;-34.520;150.798;2023-07-16T00:51:09;3.92;;;1.50;;
63394;SDS011;49531;-34.520;150.798;2023-07-16T00:53:36;2.88;;;1.30;;
63394;SDS011;49531;-34.520;150.798;2023-07-16T00:56:05;4.72;;;1.65;;
63394;SDS011;49531;-34.520;150.798;2023-07-16T00:58:33;4.20;;;1.80;;
63394;SDS011;49531;-34.520;150.798;2023-07-16T01:01:00;6.28;;;1.80;;
63394;SDS011;49531;-34.520;150.798;2023-07-16T01:03:27;5.38;;;1.90;;
63394;SDS011;49531;-34.520;150.798;2023-07-16T01:06:04;6.88;;;1.92;;
63394;SDS011;49531;-34.520;150.798;2023-07-16T01:08:46;8.32;;;1.80;;
63394;SDS011;49531;-34.520;150.798;2023-07-16T01:11:24;5.93;;;1.60;;
63394;SDS011;49531;-34.520;150.798;2023-07-16T01:13:52;6.72;;;1.85;;
63394;SDS011;49531;-34.520;150.798;2023-07-16T01:16:22;9.77;;;1.90;;
63394;SDS011;49531;-34.520;150.798;2023-07-16T01:18:51;10.45;;;2.05;;
63394;SDS011;49531;-34.520;150.798;2023-07-16T01:21:19;9.40;;;2.20;;
63394;SDS011;49531;-34.520;150.798;2023-07-16T01:23:56;12.35;;;2.10;;
63394;SDS011;49531;-34.520;150.798;2023-07-16T01:26:36;7.47;;;2.28;;
63394;SDS011;49531;-34.520;150.798;2023-07-16T01:29:28;6.88;;;2.00;;
63394;SDS011;49531;-34.520;150.798;2023-07-16T01:32:00;9.63;;;2.20;;
63394;SDS011;49531;-34.520;150.798;2023-07-16T01:34:29;8.65;;;1.88;;
63394;SDS011;49531;-34.520;150.798;2023-07-16T01:37:00;8.30;;;2.05;;
63394;SDS011;49531;-34.520;150.798;2023-07-16T01:39:28;4.35;;;1.75;;
63394;SDS011;49531;-34.520;150.798;2023-07-16T01:41:56;6.82;;;2.10;;
63394;SDS011;49531;-34.520;150.798;2023-07-16T01:44:23;7.93;;;2.35;;
63394;SDS011;49531;-34.520;150.798;2023-07-16T01:47:04;4.38;;;2.15;;
63394;SDS011;49531;-34.520;150.798;2023-07-16T01:49:35;5.18;;;1.80;;
63394;SDS011;49531;-34.520;150.798;2023-07-16T01:52:03;7.97;;;2.10;;
63394;SDS011;49531;-34.520;150.798;2023-07-16T01:54:31;6.85;;;2.10;;
63394;SDS011;49531;-34.520;150.798;2023-07-16T01:56:59;7.68;;;2.00;;
63394;SDS011;49531;-34.520;150.798;2023-07-16T01:59:26;6.50;;;2.17;;
63394;SDS011;49531;-34.520;150.798;2023-07-16T02:01:53;7.38;;;1.90;;
63394;SDS011;49531;-34.520;150.798;2023-07-16T02:04:20;7.22;;;2.15;;
63394;SDS011;49531;-34.520;150.798;2023-07-16T02:06:47;6.35;;;2.25;;
63394;SDS011;49531;-34.520;150.798;2023-07-16T02:09:14;6.95;;;2.25;;
63394;SDS011;49531;-34.520;150.798;2023-07-16T02:11:41;5.40;;;1.95;;
63394;SDS011;49531;-34.520;150.798;2023-07-16T02:14:09;6.78;;;2.00;;
63394;SDS011;49531;-34.520;150.798;2023-07-16T02:16:36;5.22;;;1.85;;
63394;SDS011;49531;-34.520;150.798;2023-07-16T02:19:03;6.00;;;2.00;;
63394;SDS011;49531;-34.520;150.798;2023-07-16T02:21:31;6.60;;;1.92;;
63394;SDS011;49531;-34.520;150.798;2023-07-16T02:23:58;7.75;;;2.00;;
63394;SDS011;49531;-34.520;150.798;2023-07-16T02:26:25;6.60;;;1.80;;
63394;SDS011;49531;-34.520;150.798;2023-07-16T02:28:53;8.25;;;2.10;;
63394;SDS011;49531;-34.520;150.798;2023-07-16T02:31:20;7.63;;;2.10;;
63394;SDS011;49531;-34.520;150.798;2023-07-16T02:33:47;5.43;;;1.90;;
63394;SDS011;49531;-34.520;150.798;2023-07-16T02:36:14;6.13;;;1.90;;
63394;SDS011;49531;-34.520;150.798;2023-07-16T02:38:41;7.20;;;2.40;;
63394;SDS011;49531;-34.520;150.798;2023-07-16T02:41:08;6.38;;;2.20;;
63394;SDS011;49531;-34.520;150.798;2023-07-16T02:43:36;8.38;;;1.90;;
63394;SDS011;49531;-34.520;150.798;2023-07-16T02:46:03;4.90;;;2.00;;
63394;SDS011;49531;-34.520;150.798;2023-07-16T02:48:30;4.70;;;1.90;;
63394;SDS011;49531;-34.520;150.798;2023-07-16T02:50:57;6.15;;;2.25;;
63394;SDS011;49531;-34.520;150.798;2023-07-16T02:53:24;5.30;;;2.03;;
63394;SDS011;49531;-34.520;150.798;2023-07-16T02:55:51;7.30;;;2.38;;
63394;SDS011;49531;-34.520;150.798;2023-07-16T02:58:18;5.35;;;2.10;;
63394;SDS011;49531;-34.520;150.798;2023-07-16T03:00:46;5.40;;;2.10;;
63394;SDS011;49531;-34.520;150.798;2023-07-16T03:03:13;5.93;;;2.10;;
63394;SDS011;49531;-34.520;150.798;2023-07-16T03:05:40;6.25;;;2.10;;
63394;SDS011;49531;-34.520;150.798;2023-07-16T03:08:07;6.45;;;2.00;;
63394;SDS011;49531;-34.520;150.798;2023-07-16T03:10:34;4.03;;;2.00;;
63394;SDS011;49531;-34.520;150.798;2023-07-16T03:13:01;5.15;;;2.03;;
63394;SDS011;49531;-34.520;150.798;2023-07-16T03:15:28;8.15;;;2.40;;
63394;SDS011;49531;-34.520;150.798;2023-07-16T03:17:55;5.03;;;2.00;;
63394;SDS011;49531;-34.520;150.798;2023-07-16T03:20:22;4.43;;;1.85;;
63394;SDS011;49531;-34.520;150.798;2023-07-16T03:22:49;10.38;;;2.10;;
63394;SDS011;49531;-34.520;150.798;2023-07-16T03:25:17;4.15;;;1.83;;
63394;SDS011;49531;-34.520;150.798;2023-07-16T03:27:44;8.43;;;1.98;;
63394;SDS011;49531;-34.520;150.798;2023-07-16T03:30:11;6.53;;;2.13;;
63394;SDS011;49531;-34.520;150.798;2023-07-16T03:32:39;5.18;;;2.03;;
63394;SDS011;49531;-34.520;150.798;2023-07-16T03:35:06;5.80;;;2.00;;
63394;SDS011;49531;-34.520;150.798;2023-07-16T03:37:33;7.38;;;2.03;;
63394;SDS011;49531;-34.520;150.798;2023-07-16T03:42:41;9.93;;;2.25;;
63394;SDS011;49531;-34.520;150.798;2023-07-16T03:45:10;11.35;;;2.55;;
63394;SDS011;49531;-34.520;150.798;2023-07-16T03:47:37;5.97;;;1.83;;
63394;SDS011;49531;-34.520;150.798;2023-07-16T03:50:04;10.30;;;2.00;;
63394;SDS011;49531;-34.520;150.798;2023-07-16T03:52:32;5.38;;;1.95;;
63394;SDS011;49531;-34.520;150.798;2023-07-16T03:54:59;6.25;;;2.03;;
63394;SDS011;49531;-34.520;150.798;2023-07-16T03:57:27;5.18;;;2.00;;
63394;SDS011;49531;-34.520;150.798;2023-07-16T03:59:55;8.65;;;2.17;;
63394;SDS011;49531;-34.520;150.798;2023-07-16T04:02:23;5.25;;;2.20;;
63394;SDS011;49531;-34.520;150.798;2023-07-16T04:04:51;9.57;;;2.38;;
63394;SDS011;49531;-34.520;150.798;2023-07-16T04:07:18;5.22;;;1.92;;
63394;SDS011;49531;-34.520;150.798;2023-07-16T04:09:45;8.73;;;2.17;;
63394;SDS011;49531;-34.520;150.798;2023-07-16T04:12:13;5.95;;;1.80;;
63394;SDS011;49531;-34.520;150.798;2023-07-16T04:14:40;9.88;;;2.25;;
63394;SDS011;49531;-34.520;150.798;2023-07-16T04:17:07;7.15;;;2.35;;
63394;SDS011;49531;-34.520;150.798;2023-07-16T04:19:34;62.63;;;4.68;;
63394;SDS011;49531;-34.520;150.798;2023-07-16T04:22:01;46.97;;;4.07;;
63394;SDS011;49531;-34.520;150.798;2023-07-16T04:24:28;25.85;;;3.13;;
63394;SDS011;49531;-34.520;150.798;2023-07-16T04:26:57;9.82;;;2.47;;
63394;SDS011;49531;-34.520;150.798;2023-07-16T04:29:25;10.35;;;2.15;;
63394;SDS011;49531;-34.520;150.798;2023-07-16T04:31:52;7.18;;;2.15;;
63394;SDS011;49531;-34.520;150.798;2023-07-16T04:34:19;9.02;;;2.20;;
63394;SDS011;49531;-34.520;150.798;2023-07-16T04:36:46;11.30;;;2.30;;
63394;SDS011;49531;-34.520;150.798;2023-07-16T04:39:13;10.13;;;2.13;;
63394;SDS011;49531;-34.520;150.798;2023-07-16T04:41:40;7.90;;;2.20;;
63394;SDS011;49531;-34.520;150.798;2023-07-16T04:44:07;8.25;;;2.10;;
63394;SDS011;49531;-34.520;150.798;2023-07-16T04:46:34;8.15;;;2.15;;
63394;SDS011;49531;-34.520;150.798;2023-07-16T04:49:02;7.43;;;2.33;;
63394;SDS011;49531;-34.520;150.798;2023-07-16T04:51:31;5.32;;;1.83;;
63394;SDS011;49531;-34.520;150.798;2023-07-16T04:53:58;8.15;;;1.77;;
63394;SDS011;49531;-34.520;150.798;2023-07-16T04:56:26;6.97;;;1.92;;
63394;SDS011;49531;-34.520;150.798;2023-07-16T04:58:53;11.50;;;2.50;;
63394;SDS011;49531;-34.520;150.798;2023-07-16T05:01:20;7.20;;;2.00;;
63394;SDS011;49531;-34.520;150.798;2023-07-16T05:03:48;8.88;;;1.90;;
63394;SDS011;49531;-34.520;150.798;2023-07-16T05:06:15;6.38;;;1.75;;
63394;SDS011;49531;-34.520;150.798;2023-07-16T05:08:42;10.27;;;2.00;;
63394;SDS011;49531;-34.520;150.798;2023-07-16T05:11:09;6.38;;;1.95;;
63394;SDS011;49531;-34.520;150.798;2023-07-16T05:13:38;6.80;;;1.75;;
63394;SDS011;49531;-34.520;150.798;2023-07-16T05:16:05;10.43;;;2.20;;
63394;SDS011;49531;-34.520;150.798;2023-07-16T05:18:32;9.15;;;2.10;;
63394;SDS011;49531;-34.520;150.798;2023-07-16T05:20:59;7.60;;;1.92;;
63394;SDS011;49531;-34.520;150.798;2023-07-16T05:23:26;5.78;;;1.85;;
63394;SDS011;49531;-34.520;150.798;2023-07-16T05:25:53;11.25;;;1.83;;
63394;SDS011;49531;-34.520;150.798;2023-07-16T05:28:21;6.97;;;1.90;;
63394;SDS011;49531;-34.520;150.798;2023-07-16T05:30:56;7.65;;;1.90;;
63394;SDS011;49531;-34.520;150.798;2023-07-16T05:33:25;5.35;;;1.85;;
63394;SDS011;49531;-34.520;150.798;2023-07-16T05:35:53;15.75;;;2.25;;
63394;SDS011;49531;-34.520;150.798;2023-07-16T05:38:21;13.45;;;2.00;;
63394;SDS011;49531;-34.520;150.798;2023-07-16T05:40:48;8.07;;;1.75;;
63394;SDS011;49531;-34.520;150.798;2023-07-16T05:43:15;5.55;;;1.65;;
63394;SDS011;49531;-34.520;150.798;2023-07-16T05:45:42;5.68;;;1.70;;
63394;SDS011;49531;-34.520;150.798;2023-07-16T05:48:10;12.20;;;1.80;;
63394;SDS011;49531;-34.520;150.798;2023-07-16T05:50:37;7.03;;;1.85;;
63394;SDS011;49531;-34.520;150.798;2023-07-16T05:53:04;7.45;;;1.73;;
63394;SDS011;49531;-34.520;150.798;2023-07-16T05:55:31;9.77;;;1.88;;
63394;SDS011;49531;-34.520;150.798;2023-07-16T05:57:58;27.13;;;2.70;;
63394;SDS011;49531;-34.520;150.798;2023-07-16T06:00:25;15.77;;;2.00;;
63394;SDS011;49531;-34.520;150.798;2023-07-16T06:02:53;9.82;;;2.00;;
63394;SDS011;49531;-34.520;150.798;2023-07-16T06:05:21;7.22;;;2.10;;
63394;SDS011;49531;-34.520;150.798;2023-07-16T06:07:50;6.30;;;1.92;;
63394;SDS011;49531;-34.520;150.798;2023-07-16T06:10:17;6.82;;;1.90;;
63394;SDS011;49531;-34.520;150.798;2023-07-16T06:12:44;6.60;;;1.70;;
63394;SDS011;49531;-34.520;150.798;2023-07-16T06:15:11;5.32;;;1.83;;
63394;SDS011;49531;-34.520;150.798;2023-07-16T06:17:38;6.93;;;1.98;;
63394;SDS011;49531;-34.520;150.798;2023-07-16T06:20:05;5.22;;;1.70;;
63394;SDS011;49531;-34.520;150.798;2023-07-16T06:22:33;6.93;;;1.73;;
63394;SDS011;49531;-34.520;150.798;2023-07-16T06:25:01;8.13;;;1.80;;
63394;SDS011;49531;-34.520;150.798;2023-07-16T06:27:28;6.85;;;1.85;;
63394;SDS011;49531;-34.520;150.798;2023-07-16T06:29:55;6.65;;;1.92;;
63394;SDS011;49531;-34.520;150.798;2023-07-16T06:32:22;8.57;;;1.77;;
63394;SDS011;49531;-34.520;150.798;2023-07-16T06:34:49;6.13;;;1.80;;
63394;SDS011;49531;-34.520;150.798;2023-07-16T06:37:17;6.03;;;1.65;;
63394;SDS011;49531;-34.520;150.798;2023-07-16T06:39:44;6.85;;;1.85;;
63394;SDS011;49531;-34.520;150.798;2023-07-16T06:42:11;5.97;;;1.83;;
63394;SDS011;49531;-34.520;150.798;2023-07-16T06:44:38;6.53;;;2.05;;
63394;SDS011;49531;-34.520;150.798;2023-07-16T06:47:05;4.78;;;1.70;;
63394;SDS011;49531;-34.520;150.798;2023-07-16T06:49:32;7.45;;;1.83;;
63394;SDS011;49531;-34.520;150.798;2023-07-16T06:52:00;4.80;;;1.67;;
63394;SDS011;49531;-34.520;150.798;2023-07-16T06:54:28;13.43;;;1.83;;
63394;SDS011;49531;-34.520;150.798;2023-07-16T06:56:55;6.57;;;1.83;;
63394;SDS011;49531;-34.520;150.798;2023-07-16T06:59:22;18.65;;;2.08;;
63394;SDS011;49531;-34.520;150.798;2023-07-16T07:01:49;9.32;;;1.85;;
63394;SDS011;49531;-34.520;150.798;2023-07-16T07:04:16;13.07;;;1.90;;
63394;SDS011;49531;-34.520;150.798;2023-07-16T07:06:44;5.15;;;1.83;;
63394;SDS011;49531;-34.520;150.798;2023-07-16T07:09:11;7.43;;;1.80;;
63394;SDS011;49531;-34.520;150.798;2023-07-16T07:11:38;5.22;;;1.70;;
63394;SDS011;49531;-34.520;150.798;2023-07-16T07:14:05;8.48;;;1.95;;
63394;SDS011;49531;-34.520;150.798;2023-07-16T07:16:32;6.93;;;1.88;;
63394;SDS011;49531;-34.520;150.798;2023-07-16T07:19:00;3.35;;;1.60;;
63394;SDS011;49531;-34.520;150.798;2023-07-16T07:21:28;5.00;;;1.70;;
63394;SDS011;49531;-34.520;150.798;2023-07-16T07:23:55;3.70;;;1.48;;
63394;SDS011;49531;-34.520;150.798;2023-07-16T07:26:22;4.78;;;1.60;;
63394;SDS011;49531;-34.520;150.798;2023-07-16T07:28:49;6.00;;;1.50;;
63394;SDS011;49531;-34.520;150.798;2023-07-16T07:31:17;5.72;;;1.67;;
63394;SDS011;49531;-34.520;150.798;2023-07-16T07:33:44;3.67;;;1.40;;
63394;SDS011;49531;-34.520;150.798;2023-07-16T07:36:11;5.82;;;1.42;;
63394;SDS011;49531;-34.520;150.798;2023-07-16T07:38:38;3.90;;;1.60;;
63394;SDS011;49531;-34.520;150.798;2023-07-16T07:41:06;4.88;;;1.60;;
63394;SDS011;49531;-34.520;150.798;2023-07-16T07:43:33;3.65;;;1.60;;
63394;SDS011;49531;-34.520;150.798;2023-07-16T07:46:00;5.05;;;1.40;;
63394;SDS011;49531;-34.520;150.798;2023-07-16T07:48:30;3.67;;;1.58;;
63394;SDS011;49531;-34.520;150.798;2023-07-16T07:50:57;3.85;;;1.40;;
63394;SDS011;49531;-34.520;150.798;2023-07-16T07:53:24;4.53;;;1.40;;
63394;SDS011;49531;-34.520;150.798;2023-07-16T07:55:52;4.20;;;1.50;;
63394;SDS011;49531;-34.520;150.798;2023-07-16T07:58:20;5.00;;;1.58;;
63394;SDS011;49531;-34.520;150.798;2023-07-16T08:00:47;2.80;;;1.55;;
63394;SDS011;49531;-34.520;150.798;2023-07-16T08:03:14;2.35;;;1.23;;
63394;SDS011;49531;-34.520;150.798;2023-07-16T08:05:41;3.17;;;1.33;;
63394;SDS011;49531;-34.520;150.798;2023-07-16T08:08:09;3.40;;;1.45;;
63394;SDS011;49531;-34.520;150.798;2023-07-16T08:10:36;2.70;;;1.40;;
63394;SDS011;49531;-34.520;150.798;2023-07-16T08:13:03;2.75;;;1.40;;
63394;SDS011;49531;-34.520;150.798;2023-07-16T08:15:30;2.45;;;1.30;;
63394;SDS011;49531;-34.520;150.798;2023-07-16T08:17:57;3.60;;;1.40;;
63394;SDS011;49531;-34.520;150.798;2023-07-16T08:20:25;2.97;;;1.40;;
63394;SDS011;49531;-34.520;150.798;2023-07-16T08:22:53;3.08;;;1.55;;
63394;SDS011;49531;-34.520;150.798;2023-07-16T08:25:20;4.22;;;1.48;;
63394;SDS011;49531;-34.520;150.798;2023-07-16T08:27:47;2.38;;;1.40;;
63394;SDS011;49531;-34.520;150.798;2023-07-16T08:30:14;2.65;;;1.42;;
63394;SDS011;49531;-34.520;150.798;2023-07-16T08:32:42;4.57;;;1.63;;
63394;SDS011;49531;-34.520;150.798;2023-07-16T08:35:09;4.47;;;1.58;;
63394;SDS011;49531;-34.520;150.798;2023-07-16T08:37:43;3.63;;;1.48;;
63394;SDS011;49531;-34.520;150.798;2023-07-16T08:40:11;5.00;;;1.80;;
63394;SDS011;49531;-34.520;150.798;2023-07-16T08:42:39;3.67;;;1.60;;
63394;SDS011;49531;-34.520;150.798;2023-07-16T08:45:07;2.92;;;1.73;;
63394;SDS011;49531;-34.520;150.798;2023-07-16T08:47:36;4.07;;;1.73;;
63394;SDS011;49531;-34.520;150.798;2023-07-16T08:50:04;5.07;;;1.90;;
63394;SDS011;49531;-34.520;150.798;2023-07-16T08:52:31;3.42;;;1.98;;
63394;SDS011;49531;-34.520;150.798;2023-07-16T08:54:58;3.47;;;1.98;;
63394;SDS011;49531;-34.520;150.798;2023-07-16T08:57:25;4.38;;;1.98;;
63394;SDS011;49531;-34.520;150.798;2023-07-16T08:59:56;3.13;;;1.90;;
63394;SDS011;49531;-34.520;150.798;2023-07-16T09:02:24;2.88;;;2.15;;
63394;SDS011;49531;-34.520;150.798;2023-07-16T09:04:51;3.40;;;2.10;;
63394;SDS011;49531;-34.520;150.798;2023-07-16T09:07:20;3.25;;;2.17;;
63394;SDS011;49531;-34.520;150.798;2023-07-16T09:09:56;4.25;;;2.38;;
63394;SDS011;49531;-34.520;150.798;2023-07-16T09:12:24;3.53;;;1.85;;
63394;SDS011;49531;-34.520;150.798;2023-07-16T09:14:52;4.97;;;2.28;;
63394;SDS011;49531;-34.520;150.798;2023-07-16T09:17:21;4.10;;;2.05;;
63394;SDS011;49531;-34.520;150.798;2023-07-16T09:19:50;3.95;;;2.20;;
63394;SDS011;49531;-34.520;150.798;2023-07-16T09:22:18;5.05;;;2.53;;
63394;SDS011;49531;-34.520;150.798;2023-07-16T09:24:48;5.03;;;2.60;;
63394;SDS011;49531;-34.520;150.798;2023-07-16T09:27:15;5.07;;;2.50;;
63394;SDS011;49531;-34.520;150.798;2023-07-16T09:29:42;5.57;;;2.78;;
63394;SDS011;49531;-34.520;150.798;2023-07-16T09:32:09;4.93;;;2.40;;
63394;SDS011;49531;-34.520;150.798;2023-07-16T09:34:40;5.50;;;2.42;;
63394;SDS011;49531;-34.520;150.798;2023-07-16T09:37:07;6.80;;;2.40;;
63394;SDS011;49531;-34.520;150.798;2023-07-16T09:39:37;5.32;;;2.50;;
63394;SDS011;49531;-34.520;150.798;2023-07-16T09:42:08;4.57;;;2.35;;
63394;SDS011;49531;-34.520;150.798;2023-07-16T09:44:38;4.22;;;2.17;;
63394;SDS011;49531;-34.520;150.798;2023-07-16T09:47:08;3.60;;;2.17;;
63394;SDS011;49531;-34.520;150.798;2023-07-16T09:49:36;5.60;;;2.80;;
63394;SDS011;49531;-34.520;150.798;2023-07-16T09:52:03;3.92;;;2.30;;
63394;SDS011;49531;-34.520;150.798;2023-07-16T09:54:31;3.28;;;2.40;;
63394;SDS011;49531;-34.520;150.798;2023-07-16T09:57:02;4.78;;;2.47;;
63394;SDS011;49531;-34.520;150.798;2023-07-16T09:59:32;4.07;;;2.55;;
63394;SDS011;49531;-34.520;150.798;2023-07-16T10:02:01;5.03;;;2.67;;
63394;SDS011;49531;-34.520;150.798;2023-07-16T10:04:37;4.90;;;2.50;;
63394;SDS011;49531;-34.520;150.798;2023-07-16T10:07:21;3.47;;;2.10;;
63394;SDS011;49531;-34.520;150.798;2023-07-16T10:09:51;4.78;;;2.38;;
63394;SDS011;49531;-34.520;150.798;2023-07-16T10:12:24;3.70;;;2.10;;
63394;SDS011;49531;-34.520;150.798;2023-07-16T10:14:52;4.85;;;2.20;;
63394;SDS011;49531;-34.520;150.798;2023-07-16T10:17:24;5.95;;;2.50;;
63394;SDS011;49531;-34.520;150.798;2023-07-16T10:19:56;3.50;;;2.50;;
63394;SDS011;49531;-34.520;150.798;2023-07-16T10:22:32;4.15;;;2.40;;
63394;SDS011;49531;-34.520;150.798;2023-07-16T10:25:08;5.15;;;2.40;;
63394;SDS011;49531;-34.520;150.798;2023-07-16T10:27:51;3.28;;;2.10;;
63394;SDS011;49531;-34.520;150.798;2023-07-16T10:30:20;4.25;;;2.40;;
63394;SDS011;49531;-34.520;150.798;2023-07-16T10:32:50;3.90;;;2.13;;
63394;SDS011;49531;-34.520;150.798;2023-07-16T10:35:20;3.90;;;2.30;;
63394;SDS011;49531;-34.520;150.798;2023-07-16T10:37:47;4.97;;;2.20;;
63394;SDS011;49531;-34.520;150.798;2023-07-16T10:40:14;5.22;;;1.98;;
63394;SDS011;49531;-34.520;150.798;2023-07-16T10:42:42;3.83;;;2.00;;
63394;SDS011;49531;-34.520;150.798;2023-07-16T10:45:19;3.72;;;2.28;;
63394;SDS011;49531;-34.520;150.798;2023-07-16T10:47:53;3.60;;;2.00;;
63394;SDS011;49531;-34.520;150.798;2023-07-16T10:50:20;3.35;;;1.95;;
63394;SDS011;49531;-34.520;150.798;2023-07-16T10:52:52;3.13;;;1.90;;
63394;SDS011;49531;-34.520;150.798;2023-07-16T10:55:20;3.33;;;1.90;;
63394;SDS011;49531;-34.520;150.798;2023-07-16T10:57:58;3.00;;;1.83;;
63394;SDS011;49531;-34.520;150.798;2023-07-16T11:00:29;4.30;;;2.00;;
63394;SDS011;49531;-34.520;150.798;2023-07-16T11:02:59;3.25;;;1.83;;
63394;SDS011;49531;-34.520;150.798;2023-07-16T11:05:26;4.55;;;1.95;;
63394;SDS011;49531;-34.520;150.798;2023-07-16T11:07:55;3.35;;;1.77;;
63394;SDS011;49531;-34.520;150.798;2023-07-16T11:10:31;2.08;;;1.70;;
63394;SDS011;49531;-34.520;150.798;2023-07-16T11:12:58;2.15;;;1.70;;
63394;SDS011;49531;-34.520;150.798;2023-07-16T11:15:30;4.35;;;1.77;;
63394;SDS011;49531;-34.520;150.798;2023-07-16T11:18:01;6.75;;;2.05;;
63394;SDS011;49531;-34.520;150.798;2023-07-16T11:20:31;4.45;;;1.80;;
63394;SDS011;49531;-34.520;150.798;2023-07-16T11:22:59;2.58;;;1.70;;
63394;SDS011;49531;-34.520;150.798;2023-07-16T11:25:26;4.22;;;1.90;;
63394;SDS011;49531;-34.520;150.798;2023-07-16T11:28:14;3.47;;;1.80;;
63394;SDS011;49531;-34.520;150.798;2023-07-16T11:30:42;2.53;;;1.70;;
63394;SDS011;49531;-34.520;150.798;2023-07-16T11:33:17;3.50;;;1.65;;
63394;SDS011;49531;-34.520;150.798;2023-07-16T11:35:44;3.60;;;1.80;;
63394;SDS011;49531;-34.520;150.798;2023-07-16T11:38:21;2.95;;;1.77;;
63394;SDS011;49531;-34.520;150.798;2023-07-16T11:40:51;3.53;;;1.65;;
63394;SDS011;49531;-34.520;150.798;2023-07-16T11:43:18;3.75;;;1.80;;
63394;SDS011;49531;-34.520;150.798;2023-07-16T11:45:48;2.65;;;1.52;;
63394;SDS011;49531;-34.520;150.798;2023-07-16T11:50:54;3.03;;;1.60;;
63394;SDS011;49531;-34.520;150.798;2023-07-16T11:53:30;3.47;;;1.70;;
63394;SDS011;49531;-34.520;150.798;2023-07-16T11:56:04;4.00;;;1.98;;
63394;SDS011;49531;-34.520;150.798;2023-07-16T11:58:35;4.85;;;1.80;;
63394;SDS011;49531;-34.520;150.798;2023-07-16T12:01:04;3.10;;;1.58;;
63394;SDS011;49531;-34.520;150.798;2023-07-16T12:03:31;3.75;;;1.60;;
63394;SDS011;49531;-34.520;150.798;2023-07-16T12:05:58;4.18;;;1.65;;
63394;SDS011;49531;-34.520;150.798;2023-07-16T12:08:31;3.45;;;1.60;;
63394;SDS011;49531;-34.520;150.798;2023-07-16T12:10:58;4.10;;;1.70;;
63394;SDS011;49531;-34.520;150.798;2023-07-16T12:13:25;4.25;;;1.80;;
63394;SDS011;49531;-34.520;150.798;2023-07-16T12:15:52;2.85;;;1.60;;
63394;SDS011;49531;-34.520;150.798;2023-07-16T12:18:19;2.47;;;1.50;;
63394;SDS011;49531;-34.520;150.798;2023-07-16T12:20:58;4.75;;;1.70;;
63394;SDS011;49531;-34.520;150.798;2023-07-16T12:23:28;3.83;;;1.70;;
63394;SDS011;49531;-34.520;150.798;2023-07-16T12:25:55;3.45;;;1.65;;
63394;SDS011;49531;-34.520;150.798;2023-07-16T12:28:22;3.10;;;1.60;;
63394;SDS011;49531;-34.520;150.798;2023-07-16T12:30:58;4.32;;;1.70;;
63394;SDS011;49531;-34.520;150.798;2023-07-16T12:33:25;3.97;;;1.60;;
63394;SDS011;49531;-34.520;150.798;2023-07-16T12:35:55;3.30;;;1.50;;
63394;SDS011;49531;-34.520;150.798;2023-07-16T12:38:23;4.68;;;1.73;;
63394;SDS011;49531;-34.520;150.798;2023-07-16T12:40:50;4.93;;;1.70;;
63394;SDS011;49531;-34.520;150.798;2023-07-16T12:43:20;2.35;;;1.50;;
63394;SDS011;49531;-34.520;150.798;2023-07-16T12:45:47;3.28;;;1.65;;
63394;SDS011;49531;-34.520;150.798;2023-07-16T12:48:14;3.90;;;1.58;;
63394;SDS011;49531;-34.520;150.798;2023-07-16T12:50:41;2.95;;;1.55;;
63394;SDS011;49531;-34.520;150.798;2023-07-16T12:53:08;3.60;;;1.50;;
63394;SDS011;49531;-34.520;150.798;2023-07-16T12:55:47;4.15;;;1.50;;
63394;SDS011;49531;-34.520;150.798;2023-07-16T12:58:14;2.42;;;1.48;;
63394;SDS011;49531;-34.520;150.798;2023-07-16T13:00:51;3.65;;;1.63;;
63394;SDS011;49531;-34.520;150.798;2023-07-16T13:03:19;3.13;;;1.55;;
63394;SDS011;49531;-34.520;150.798;2023-07-16T13:05:47;4.15;;;1.70;;
63394;SDS011;49531;-34.520;150.798;2023-07-16T13:08:14;2.92;;;1.60;;
63394;SDS011;49531;-34.520;150.798;2023-07-16T13:10:41;4.88;;;1.60;;
63394;SDS011;49531;-34.520;150.798;2023-07-16T13:13:08;4.82;;;1.50;;
63394;SDS011;49531;-34.520;150.798;2023-07-16T13:15:36;2.97;;;1.40;;
63394;SDS011;49531;-34.520;150.798;2023-07-16T13:18:06;3.05;;;1.58;;
63394;SDS011;49531;-34.520;150.798;2023-07-16T13:20:35;2.80;;;1.40;;
63394;SDS011;49531;-34.520;150.798;2023-07-16T13:23:03;2.50;;;1.50;;
63394;SDS011;49531;-34.520;150.798;2023-07-16T13:25:30;3.50;;;1.60;;
63394;SDS011;49531;-34.520;150.798;2023-07-16T13:27:57;3.35;;;1.60;;
63394;SDS011;49531;-34.520;150.798;2023-07-16T13:30:24;2.90;;;1.58;;
63394;SDS011;49531;-34.520;150.798;2023-07-16T13:32:51;3.88;;;1.70;;
63394;SDS011;49531;-34.520;150.798;2023-07-16T13:35:22;2.90;;;1.33;;
63394;SDS011;49531;-34.520;150.798;2023-07-16T13:37:50;2.55;;;1.40;;
63394;SDS011;49531;-34.520;150.798;2023-07-16T13:40:17;2.90;;;1.42;;
63394;SDS011;49531;-34.520;150.798;2023-07-16T13:42:46;1.75;;;1.30;;
63394;SDS011;49531;-34.520;150.798;2023-07-16T13:45:14;4.40;;;1.73;;
63394;SDS011;49531;-34.520;150.798;2023-07-16T13:47:41;4.00;;;1.70;;
63394;SDS011;49531;-34.520;150.798;2023-07-16T13:50:09;2.28;;;1.42;;
63394;SDS011;49531;-34.520;150.798;2023-07-16T13:52:36;3.58;;;1.40;;
63394;SDS011;49531;-34.520;150.798;2023-07-16T13:55:04;3.95;;;1.50;;
63394;SDS011;49531;-34.520;150.798;2023-07-16T13:57:31;2.95;;;1.50;;
63394;SDS011;49531;-34.520;150.798;2023-07-16T13:59:58;3.40;;;1.20;;
63394;SDS011;49531;-34.520;150.798;2023-07-16T14:02:26;4.25;;;1.42;;
63394;SDS011;49531;-34.520;150.798;2023-07-16T14:04:53;2.88;;;1.45;;
63394;SDS011;49531;-34.520;150.798;2023-07-16T14:07:20;2.28;;;1.30;;
63394;SDS011;49531;-34.520;150.798;2023-07-16T14:09:47;3.00;;;1.40;;
63394;SDS011;49531;-34.520;150.798;2023-07-16T14:12:15;2.38;;;1.60;;
63394;SDS011;49531;-34.520;150.798;2023-07-16T14:14:42;2.42;;;1.30;;
63394;SDS011;49531;-34.520;150.798;2023-07-16T14:17:09;2.75;;;1.52;;
63394;SDS011;49531;-34.520;150.798;2023-07-16T14:19:37;2.35;;;1.30;;
63394;SDS011;49531;-34.520;150.798;2023-07-16T14:22:04;2.60;;;1.52;;